Data for 06/04/2016

Time Sea-Level Adjusted Pressure Absolute Pressure Temperature Relative Humidity Dew Point   
(mb) (inHg) (mb) (inHg) (C) (F) (%) (C) (F)
00:05 1027 30.33 856 25.28 12.9 55.2 54 3.9 39.1
00:10 1027 30.33 856 25.28 12.9 55.3 55 4.2 39.6
00:15 1027 30.33 856 25.28 12.7 54.8 56 4.1 39.4
00:20 1027 30.33 856 25.28 12.6 54.7 56 4.2 39.5
00:25 1027 30.33 856 25.28 12.6 54.6 56 4 39.2
00:30 1027 30.33 856 25.28 12.6 54.6 56 4 39.2
00:35 1027 30.33 856 25.28 12.5 54.5 56 4.1 39.4
00:40 1027 30.33 856 25.28 12.3 54.1 58 4.3 39.7
00:45 1027 30.33 856 25.28 12.1 53.7 57 3.9 39.1
00:50 1027 30.33 856 25.28 12.3 54.1 56 3.8 38.8
00:55 1027 30.33 856 25.28 12.5 54.4 55 3.7 38.7
01:00 1027 30.33 856 25.28 12.6 54.6 55 3.7 38.7
01:05 1027 30.33 856 25.28 12.6 54.7 54 3.6 38.6
01:10 1027 30.33 856 25.28 12.8 55.1 53 3.5 38.3
01:15 1027 30.33 856 25.28 13.2 55.8 52 3.6 38.5
01:20 1027 30.33 856 25.28 13.3 55.9 52 3.7 38.7
01:25 1027 30.33 856 25.28 13.2 55.7 53 3.8 38.8
01:30 1027 30.33 856 25.28 12.9 55.1 54 3.9 39.1
01:35 1027 30.33 856 25.28 12.7 54.9 54 3.6 38.4
01:40 1027 30.33 856 25.28 12.6 54.7 55 3.8 38.9
01:45 1027 30.33 856 25.28 12.4 54.3 56 3.9 39
01:50 1027 30.33 856 25.28 12.2 53.9 56 3.7 38.6
01:55 1027 30.33 856 25.28 12.1 53.8 56 3.8 38.8
02:00 1027 30.33 856 25.28 12 53.5 57 3.9 38.9
02:05 1027 30.33 857 25.31 11.8 53.3 58 3.8 38.8
02:10 1027 30.33 857 25.31 11.6 52.9 59 3.8 38.9
02:15 1027 30.33 857 25.31 11.6 52.8 57 3.5 38.3
02:20 1027 30.33 857 25.31 11.9 53.4 56 3.5 38.3
02:25 1027 30.33 857 25.31 11.8 53.3 57 3.7 38.7
02:30 1027 30.33 857 25.31 11.7 53.1 58 3.7 38.6
02:35 1027 30.33 857 25.31 11.7 53 58 3.7 38.6
02:40 1027 30.33 857 25.31 11.6 52.8 59 3.8 38.9
02:45 1027 30.33 857 25.31 11.2 52.2 59 3.7 38.6
02:50 1027 30.33 857 25.31 11.1 51.9 60 3.7 38.6
02:55 1027 30.33 857 25.31 11 51.9 60 3.6 38.5
03:00 1027 30.33 857 25.31 11.1 52 59 3.5 38.3
03:05 1027 30.33 857 25.31 11.3 52.3 58 3.5 38.2
03:10 1027 30.33 857 25.31 11.4 52.5 59 3.7 38.7
03:15 1027 30.33 857 25.31 11.1 52 60 3.7 38.7
03:20 1027 30.33 856 25.28 11 51.8 60 3.6 38.5
03:25 1027 30.33 856 25.28 11 51.8 60 3.7 38.6
03:30 1027 30.33 857 25.31 10.8 51.4 61 3.5 38.4
03:35 1027 30.33 857 25.31 10.8 51.4 60 3.4 38.1
03:40 1027 30.33 857 25.31 11.1 51.9 58 3.3 37.9
03:45 1027 30.33 857 25.31 11.4 52.5 57 3.3 37.9
03:50 1028 30.36 857 25.31 11.4 52.5 58 3.4 38.1
03:55 1028 30.36 857 25.31 11.4 52.5 56 3.1 37.6
04:00 1028 30.36 857 25.31 11.5 52.7 58 3.5 38.2
04:05 1028 30.36 857 25.31 11.3 52.3 59 3.5 38.3
04:10 1028 30.36 857 25.31 10.9 51.6 60 3.5 38.3
04:15 1028 30.36 857 25.31 10.8 51.4 59 3.1 37.6
04:20 1028 30.36 857 25.31 10.9 51.5 60 3.4 38.1
04:25 1028 30.36 857 25.31 10.7 51.3 61 3.5 38.3
04:30 1027 30.33 857 25.31 10.5 51 60 3 37.5
04:35 1028 30.36 857 25.31 11 51.8 58 3.2 37.8
04:40 1027 30.33 857 25.31 10.8 51.5 60 3.4 38.2
04:45 1027 30.33 857 25.31 10.6 51 60 3.2 37.7
04:50 1027 30.33 857 25.31 10.7 51.2 59 3.1 37.5
04:55 1027 30.33 857 25.31 10.9 51.7 58 3.1 37.7
05:00 1027 30.33 857 25.31 11.2 52.1 57 3.1 37.6
05:05 1028 30.36 857 25.31 11.2 52.1 58 3.3 38
05:10 1028 30.36 857 25.31 10.9 51.5 59 3.2 37.7
05:15 1028 30.36 857 25.31 10.9 51.7 58 3 37.5
05:20 1028 30.36 857 25.31 11 51.8 58 3.2 37.7
05:25 1028 30.36 857 25.31 11 51.9 58 3.1 37.6
05:30 1028 30.36 857 25.31 11.2 52.2 57 3.1 37.6
05:35 1028 30.36 857 25.31 11.5 52.7 56 3 37.5
05:40 1028 30.36 857 25.31 11.9 53.4 54 3 37.3
05:45 1028 30.36 857 25.31 12.2 53.9 54 3.1 37.6
05:50 1028 30.36 857 25.31 12.3 54.1 53 3 37.4
05:55 1028 30.36 857 25.31 12.4 54.4 53 3.3 37.9
06:00 1028 30.36 857 25.31 12.6 54.6 53 3.4 38.1
06:05 1028 30.36 857 25.31 12.6 54.7 54 3.6 38.4
06:10 1028 30.36 857 25.31 12.5 54.5 54 3.4 38.2
06:15 1028 30.36 857 25.31 12.6 54.6 54 3.6 38.4
06:20 1028 30.36 857 25.31 12.9 55.2 53 3.6 38.4
06:25 1028 30.36 857 25.31 13.1 55.5 53 3.8 38.9
06:30 1028 30.36 857 25.31 13.5 56.3 53 4 39.3
06:35 1028 30.36 857 25.31 13.8 56.8 53 4.5 40.2
06:40 1028 30.36 857 25.31 13.9 57 53 4.5 40.1
06:45 1028 30.36 857 25.31 14.2 57.6 53 4.9 40.8
06:50 1028 30.36 857 25.31 14.2 57.6 53 4.9 40.8
06:55 1028 30.36 857 25.31 14.2 57.5 54 5.1 41.3
07:00 1028 30.36 857 25.31 14.5 58.1 51 4.7 40.4
07:05 1028 30.36 857 25.31 14.9 58.8 50 4.7 40.4
07:10 1028 30.36 857 25.31 15.3 59.5 49 4.7 40.4
07:15 1028 30.36 857 25.31 16 60.7 47 4.7 40.4
07:20 1028 30.36 857 25.31 16.2 61.2 46 4.6 40.2
07:25 1028 30.36 857 25.31 16.8 62.2 43 4.4 39.9
07:30 1028 30.36 857 25.31 17.2 63 42 4.4 40
07:35 1028 30.36 857 25.31 17.8 64 40 4.3 39.7
07:40 1028 30.36 857 25.31 17.9 64.2 42 4.9 40.8
07:45 1028 30.36 857 25.31 18.1 64.5 39 4.2 39.5
07:50 1028 30.36 857 25.31 18.8 65.8 38 4.3 39.8
07:55 1028 30.36 857 25.31 19 66.2 36 3.9 38.9
08:00 1028 30.36 857 25.31 19.2 66.5 36 3.9 39.1
08:05 1028 30.36 857 25.31 19.2 66.6 36 3.9 38.9
08:10 1028 30.36 857 25.31 19.5 67.2 35 3.7 38.7
08:15 1028 30.36 857 25.31 19.8 67.6 34 3.6 38.4
08:20 1028 30.36 857 25.31 20 68 33 3.6 38.4
08:25 1028 30.36 857 25.31 20.2 68.3 34 4 39.1
08:30 1028 30.36 857 25.31 19.6 67.2 36 4.1 39.4
08:35 1028 30.36 857 25.31 18.7 65.7 40 5 41
08:40 1028 30.36 857 25.31 19.1 66.3 38 4.6 40.4
08:45 1028 30.36 857 25.31 19.1 66.3 40 5.2 41.4
08:50 1028 30.36 857 25.31 19.2 66.5 38 4.7 40.4
08:55 1028 30.36 857 25.31 19.7 67.5 37 4.8 40.6
09:00 1028 30.36 857 25.31 19.3 66.8 37 4.6 40.3
09:05 1028 30.36 857 25.31 19.9 67.9 36 4.8 40.6
09:10 1028 30.36 857 25.31 20.1 68.2 35 4.4 39.9
09:15 1028 30.36 857 25.31 19.9 67.8 36 4.4 39.9
09:20 1027 30.33 857 25.31 20 67.9 33 3.3 37.9
09:25 1027 30.33 857 25.31 20.8 69.4 32 3.5 38.3
09:30 1027 30.33 857 25.31 21.7 71 30 3.6 38.6
09:35 1027 30.33 857 25.31 21.9 71.4 31 4.2 39.5
09:40 1027 30.33 856 25.28 21.8 71.3 30 3.6 38.5
09:45 1027 30.33 856 25.28 22 71.5 27 2.6 36.6
09:50 1027 30.33 856 25.28 21.8 71.3 30 3.8 38.8
09:55 1027 30.33 856 25.28 21.5 70.6 31 3.7 38.7
10:00 1027 30.33 856 25.28 22 71.6 31 4.2 39.5
10:05 1027 30.33 856 25.28 21.3 70.3 31 3.5 38.4
10:10 1027 30.33 856 25.28 22.1 71.8 30 3.9 39
10:15 1027 30.33 856 25.28 22.7 72.9 29 3.8 38.8
10:20 1027 30.33 856 25.28 22.4 72.4 28 3.2 37.8
10:25 1027 30.33 856 25.28 22.9 73.2 26 2.8 37.1
10:30 1027 30.33 856 25.28 23.1 73.5 28 3.6 38.5
10:35 1027 30.33 856 25.28 23.3 74 28 4.2 39.5
10:40 1027 30.33 856 25.28 23.6 74.5 28 4.1 39.4
10:45 1027 30.33 856 25.28 22.8 73 28 3.3 38
10:50 1027 30.33 856 25.28 22.7 72.8 28 3.3 37.9
10:55 1027 30.33 856 25.28 23.7 74.6 25 2.9 37.2
11:00 1027 30.33 856 25.28 23 73.4 27 3.2 37.7
11:05 1027 30.33 856 25.28 23.8 74.8 26 3.1 37.7
11:10 1027 30.33 856 25.28 23.5 74.4 25 2.8 37.1
11:15 1027 30.33 856 25.28 23.9 75 25 3 37.4
11:20 1027 30.33 856 25.28 24 75.1 24 2.6 36.7
11:25 1027 30.33 856 25.28 24.1 75.5 26 3.4 38.2
11:30 1026 30.3 856 25.28 23.7 74.6 26 3.5 38.2
11:35 1026 30.3 856 25.28 23.7 74.7 26 3.4 38.1
11:40 1026 30.3 855 25.25 24.8 76.6 25 3.6 38.6
11:45 1026 30.3 855 25.25 24.9 76.8 25 3.8 38.9
11:50 1026 30.3 855 25.25 23.7 74.7 24 2.4 36.2
11:55 1026 30.3 855 25.25 24.7 76.4 20 0.8 33.4
12:00 1026 30.3 855 25.25 25 77.1 22 2.1 35.8
12:05 1026 30.3 855 25.25 25.3 77.6 21 1.6 34.9
12:10 1026 30.3 855 25.25 24.4 76 24 2.7 36.9
12:15 1026 30.3 855 25.25 24.7 76.5 22 1.8 35.2
12:20 1026 30.3 855 25.25 25.2 77.3 23 2.9 37.1
12:25 1026 30.3 855 25.25 24.8 76.6 24 3.1 37.5
12:30 1026 30.3 855 25.25 25.2 77.3 21 1.4 34.6
12:35 1026 30.3 855 25.25 25.5 77.9 21 1.6 34.8
12:40 1026 30.3 855 25.25 25.8 78.4 22 3.1 37.5
12:45 1026 30.3 855 25.25 25.6 78.1 22 2.8 37
12:50 1025 30.27 855 25.25 25.8 78.4 22 2.9 37.3
12:55 1025 30.27 855 25.25 26.1 79 22 3 37.5
13:00 1025 30.27 854 25.22 25.9 78.6 22 3 37.3
13:05 1025 30.27 854 25.22 25.4 77.6 24 3.6 38.5
13:10 1025 30.27 854 25.22 24.7 76.4 23 2.5 36.5
13:15 1025 30.27 854 25.22 25.8 78.4 23 3.2 37.8
13:20 1025 30.27 854 25.22 26 78.7 23 3.5 38.2
13:25 1025 30.27 854 25.22 26.5 79.7 22 3.5 38.3
13:30 1025 30.27 854 25.22 26.1 79 23 3.6 38.5
13:35 1025 30.27 854 25.22 24.9 76.8 25 3.6 38.5
13:40 1025 30.27 854 25.22 25.5 77.9 23 3.4 38.1
13:45 1025 30.27 854 25.22 26.5 79.6 23 3.9 39.1
13:50 1025 30.27 854 25.22 26.2 79.1 23 3.5 38.4
13:55 1025 30.27 854 25.22 26.3 79.4 22 2.9 37.2
14:00 1025 30.27 854 25.22 26.2 79.1 22 2.9 37.2
14:05 1025 30.27 854 25.22 26 78.8 22 3.1 37.5
14:10 1025 30.27 854 25.22 26.1 79 22 2.8 37.1
14:15 1025 30.27 854 25.22 26 78.9 22 3.1 37.6
14:20 1025 30.27 854 25.22 26.3 79.4 22 3 37.4
14:25 1025 30.27 854 25.22 26.1 78.9 23 3.3 37.9
14:30 1025 30.27 854 25.22 25.8 78.5 21 2.4 36.4
14:35 1025 30.27 854 25.22 25.6 78.1 23 3.2 37.7
14:40 1024 30.24 854 25.22 25.5 77.9 24 3.8 38.9
14:45 1024 30.24 854 25.22 25 77.1 23 2.7 36.9
14:50 1024 30.24 854 25.22 25.3 77.6 23 2.9 37.3
14:55 1024 30.24 853 25.19 25.7 78.3 23 3.2 37.8
15:00 1024 30.24 853 25.19 26.2 79.1 22 3 37.4
15:05 1024 30.24 853 25.19 26.8 80.2 20 2.4 36.3
15:10 1024 30.24 853 25.19 26.7 80.1 21 2.9 37.3
15:15 1024 30.24 853 25.19 26.5 79.6 22 3.2 37.8
15:20 1024 30.24 853 25.19 26.9 80.3 20 2.5 36.5
15:25 1024 30.24 853 25.19 26.3 79.3 23 3.8 38.8
15:30 1024 30.24 853 25.19 26.3 79.3 22 3.3 37.9
15:35 1024 30.24 853 25.19 26.5 79.8 22 3.5 38.3
15:40 1024 30.24 853 25.19 26.2 79.2 23 4 39.1
15:45 1024 30.24 853 25.19 26.6 79.8 22 3.6 38.5
15:50 1024 30.24 853 25.19 26.1 79 24 4.2 39.6
15:55 1024 30.24 853 25.19 26.3 79.3 23 3.8 38.8
16:00 1024 30.24 853 25.19 26.5 79.7 22 3.7 38.6
16:05 1024 30.24 853 25.19 26.3 79.4 21 2.8 37.1
16:10 1024 30.24 853 25.19 25.6 78 23 3.1 37.6
16:15 1024 30.24 853 25.19 25.5 77.9 23 2.8 37.1
16:20 1024 30.24 853 25.19 26.3 79.4 22 3.1 37.6
16:25 1024 30.24 853 25.19 26.8 80.2 21 3.2 37.7
16:30 1024 30.24 853 25.19 27.2 81 21 3 37.5
16:35 1024 30.24 853 25.19 27.1 80.8 21 3.3 38
16:40 1024 30.24 853 25.19 26.3 79.3 21 2.7 36.8
16:45 1024 30.24 853 25.19 26.8 80.2 21 2.8 37.1
16:50 1023 30.21 853 25.19 26.8 80.2 21 2.9 37.2
16:55 1023 30.21 853 25.19 26.6 79.8 22 3.2 37.8
17:00 1023 30.21 853 25.19 26.5 79.6 21 2.8 37
17:05 1023 30.21 853 25.19 25.6 78 23 3.3 37.9
17:10 1023 30.21 853 25.19 25.4 77.6 24 3.5 38.3
17:15 1023 30.21 852 25.16 25.8 78.4 22 3 37.5
17:20 1023 30.21 852 25.16 25.8 78.4 23 3.5 38.3
17:25 1023 30.21 852 25.16 26 78.9 22 3.2 37.7
17:30 1023 30.21 852 25.16 26.3 79.3 22 2.9 37.3
17:35 1023 30.21 852 25.16 26.7 80 20 2.5 36.4
17:40 1023 30.21 852 25.16 26.3 79.3 21 2.4 36.3
17:45 1023 30.21 852 25.16 26.3 79.3 18 0.2 32.3
17:50 1023 30.21 852 25.16 26.2 79.2 17 -0.6 30.9
17:55 1023 30.21 852 25.16 26.5 79.6 18 0.1 32.2
18:00 1023 30.21 852 25.16 26.2 79.1 18 -0.1 31.9
18:05 1023 30.21 852 25.16 25.9 78.6 19 0.6 33
18:10 1023 30.21 852 25.16 25.9 78.7 19 0.7 33.3
18:15 1023 30.21 852 25.16 26.1 79 19 0.8 33.5
18:20 1023 30.21 852 25.16 26.1 78.9 17 -0.7 30.7
18:25 1023 30.21 852 25.16 26.1 78.9 17 -1 30.3
18:30 1023 30.21 852 25.16 25.8 78.4 15 -2.5 27.5
18:35 1023 30.21 852 25.16 25.8 78.4 17 -1.2 29.8
18:40 1023 30.21 852 25.16 25.6 78 17 -0.8 30.5
18:45 1023 30.21 852 25.16 25.5 77.9 19 0.1 32.2
18:50 1023 30.21 852 25.16 25.3 77.6 19 0.1 32.3
18:55 1023 30.21 852 25.16 25.2 77.3 19 0.1 32.2
19:00 1023 30.21 852 25.16 25.1 77.3 19 0 32
19:05 1023 30.21 852 25.16 25 76.9 19 0.2 32.4
19:10 1023 30.21 852 25.16 24.9 76.8 20 0.5 32.8
19:15 1023 30.21 852 25.16 24.8 76.6 21 1 33.8
19:20 1023 30.21 852 25.16 24.7 76.5 21 1.4 34.6
19:25 1023 30.21 852 25.16 24.6 76.2 27 4.4 39.9
19:30 1023 30.21 852 25.16 24.3 75.7 29 5.5 41.9
19:35 1023 30.21 852 25.16 24.1 75.3 28 4.8 40.7
19:40 1023 30.21 852 25.16 23.9 75 28 4.7 40.5
19:45 1023 30.21 852 25.16 23.8 74.8 30 5.3 41.5
19:50 1023 30.21 852 25.16 23.6 74.4 32 6.2 43.1
19:55 1023 30.21 852 25.16 23.3 73.9 33 6.2 43.1
20:00 1023 30.21 852 25.16 23.2 73.7 33 6.3 43.3
20:05 1023 30.21 852 25.16 22.8 73 37 7.6 45.6
20:10 1023 30.21 852 25.16 22.2 71.9 45 9.8 49.7
20:15 1023 30.21 852 25.16 21.7 71 40 7.8 46.1
20:20 1023 30.21 852 25.16 21 69.7 44 8.3 47
20:25 1023 30.21 852 25.16 20.3 68.5 45 8 46.5
20:30 1023 30.21 852 25.16 19.8 67.6 44 7.4 45.3
20:35 1023 30.21 852 25.16 19.7 67.5 44 7.4 45.3
20:40 1023 30.21 852 25.16 19.8 67.6 41 6.3 43.4
20:45 1023 30.21 852 25.16 19.7 67.4 43 7 44.6
20:50 1023 30.21 852 25.16 19.1 66.5 42 5.9 42.7
20:55 1023 30.21 852 25.16 18.7 65.6 38 4.3 39.7
21:00 1023 30.21 852 25.16 18.3 65 40 4.7 40.5
21:05 1023 30.21 852 25.16 18.5 65.3 40 4.9 40.8
21:10 1023 30.21 852 25.16 18.1 64.7 39 4 39.2
21:15 1023 30.21 852 25.16 18 64.3 38 3.6 38.5
21:20 1023 30.21 852 25.16 18.1 64.6 36 2.8 37.1
21:25 1023 30.21 852 25.16 18 64.5 39 4.1 39.3
21:30 1023 30.21 852 25.16 17.4 63.3 40 4 39.1
21:35 1023 30.21 852 25.16 16.9 62.4 43 4.2 39.6
21:40 1023 30.21 852 25.16 16.4 61.5 44 4.2 39.6
21:45 1023 30.21 852 25.16 16.2 61.1 44 3.9 39
21:50 1023 30.21 852 25.16 16.3 61.3 42 3.6 38.4
21:55 1023 30.21 852 25.16 16.5 61.6 42 3.6 38.4
22:00 1023 30.21 852 25.16 16.5 61.7 42 3.6 38.5
22:05 1023 30.21 852 25.16 16.4 61.5 43 3.7 38.7
22:10 1023 30.21 852 25.16 16.5 61.6 41 3.4 38.1
22:15 1023 30.21 852 25.16 16.7 62.1 41 3.6 38.5
22:20 1023 30.21 852 25.16 16.6 61.9 41 3.6 38.4
22:25 1023 30.21 852 25.16 16.5 61.7 41 3.4 38.1
22:30 1023 30.21 852 25.16 16.4 61.5 41 3.3 37.9
22:35 1023 30.21 852 25.16 16.4 61.5 41 3.1 37.6
22:40 1023 30.21 852 25.16 16.4 61.5 42 3.5 38.3
22:45 1023 30.21 852 25.16 16.3 61.3 41 3.3 37.9
22:50 1023 30.21 852 25.16 16.2 61.1 42 3.4 38.1
22:55 1023 30.21 852 25.16 16 60.8 42 3.4 38.1
23:00 1023 30.21 852 25.16 16 60.7 43 3.5 38.3
23:05 1023 30.21 852 25.16 15.8 60.5 43 3.5 38.2
23:10 1023 30.21 852 25.16 15.9 60.6 43 3.3 37.9
23:15 1023 30.21 852 25.16 16 60.8 42 3.2 37.8
23:20 1023 30.21 852 25.16 16.1 61 42 3.3 37.9
23:25 1023 30.21 852 25.16 16 60.8 43 3.4 38.2
23:30 1023 30.21 852 25.16 15.8 60.5 43 3.5 38.3
23:35 1023 30.21 852 25.16 15.7 60.2 43 3.2 37.8
23:40 1023 30.21 852 25.16 15.8 60.4 43 3.4 38.2
23:45 1023 30.21 852 25.16 15.8 60.4 43 3.5 38.2
23:50 1023 30.21 852 25.16 15.4 59.8 45 3.6 38.4
23:55 1023 30.21 852 25.16 15.4 59.6 44 3.4 38.1
24:00 1023 30.21 852 25.16 15.4 59.8 44 3.3 37.9